createdAt,value
2018-04-17T00:00:00.030Z,13.77
2018-04-17T00:02:01.749Z,13.74
2018-04-17T00:04:03.431Z,13.77
2018-04-17T00:06:05.158Z,13.69
2018-04-17T00:08:06.902Z,13.69
2018-04-17T00:10:08.777Z,13.69
2018-04-17T00:12:10.603Z,13.63
2018-04-17T00:14:12.301Z,13.59
2018-04-17T00:16:14.165Z,13.58
2018-04-17T00:18:16.318Z,13.54
2018-04-17T00:20:18.122Z,13.55
2018-04-17T00:22:19.881Z,13.46
2018-04-17T00:24:21.751Z,13.44
2018-04-17T00:26:23.671Z,13.37
2018-04-17T00:28:25.511Z,13.29
2018-04-17T00:30:27.436Z,13.27
2018-04-17T00:32:29.377Z,13.27
2018-04-17T00:34:31.027Z,13.24
2018-04-17T00:36:32.947Z,13.20
2018-04-17T00:38:34.756Z,13.11
2018-04-17T00:40:36.558Z,13.14
2018-04-17T00:42:38.421Z,13.15
2018-04-17T00:44:40.181Z,13.14
2018-04-17T00:46:41.997Z,13.09
2018-04-17T00:48:43.817Z,13.02
2018-04-17T00:50:45.483Z,12.95
2018-04-17T00:52:47.166Z,12.93
2018-04-17T00:54:48.975Z,13.04
2018-04-17T00:56:50.673Z,12.93
2018-04-17T00:58:52.420Z,12.92
2018-04-17T01:00:54.158Z,12.89
2018-04-17T01:02:55.874Z,12.88
2018-04-17T01:04:57.567Z,12.84
2018-04-17T01:06:59.460Z,12.87
2018-04-17T01:09:01.252Z,12.75
2018-04-17T01:11:02.757Z,12.78
2018-04-17T01:13:04.409Z,12.81
2018-04-17T01:15:05.993Z,12.75
2018-04-17T01:17:07.529Z,12.77
2018-04-17T01:19:09.327Z,12.70
2018-04-17T01:21:10.975Z,12.67
2018-04-17T01:23:12.526Z,12.66
2018-04-17T01:25:14.466Z,12.59
2018-04-17T01:27:16.166Z,12.62
2018-04-17T01:29:18.088Z,12.64
2018-04-17T01:31:19.857Z,12.62
2018-04-17T01:33:21.754Z,12.57
2018-04-17T01:35:23.293Z,12.60
2018-04-17T01:37:25.153Z,12.62
2018-04-17T01:39:27.086Z,12.60
2018-04-17T01:41:28.965Z,12.44
2018-04-17T01:43:30.755Z,12.54
2018-04-17T01:45:32.615Z,12.54
2018-04-17T01:47:34.361Z,12.54
2018-04-17T01:49:36.154Z,12.54
2018-04-17T01:51:37.984Z,12.38
2018-04-17T01:53:39.854Z,12.39
2018-04-17T01:55:41.638Z,12.38
2018-04-17T01:57:43.279Z,12.34
2018-04-17T01:59:45.107Z,12.33
2018-04-17T02:01:46.963Z,12.12
2018-04-17T02:03:48.939Z,12.21
2018-04-17T02:05:50.593Z,12.12
2018-04-17T02:07:52.494Z,12.05
2018-04-17T02:09:54.216Z,12.05
2018-04-17T02:11:56.040Z,12.09
2018-04-17T02:13:57.751Z,12.01
2018-04-17T02:15:59.542Z,12.06
2018-04-17T02:18:01.290Z,12.04
2018-04-17T02:20:03.124Z,12.02
2018-04-17T02:22:04.824Z,11.96
2018-04-17T02:24:06.565Z,11.90
2018-04-17T02:26:08.236Z,11.89
2018-04-17T02:28:09.974Z,11.96
2018-04-17T02:30:11.656Z,11.96
2018-04-17T02:32:13.567Z,11.97
2018-04-17T02:34:15.273Z,12.04
2018-04-17T02:36:17.151Z,11.96
2018-04-17T02:38:18.942Z,11.94
2018-04-17T02:40:20.764Z,11.93
2018-04-17T02:42:22.440Z,11.90
2018-04-17T02:44:24.263Z,11.93
2018-04-17T02:46:26.086Z,11.86
2018-04-17T02:48:28.034Z,11.93
2018-04-17T02:50:29.882Z,11.94
2018-04-17T02:52:31.667Z,12.02
2018-04-17T02:54:33.552Z,11.89
2018-04-17T02:56:35.401Z,11.87
2018-04-17T02:58:37.247Z,11.90
2018-04-17T03:00:39.105Z,11.90
2018-04-17T03:02:40.937Z,11.99
2018-04-17T03:04:42.681Z,12.06
2018-04-17T03:06:44.491Z,12.08
2018-04-17T03:08:46.394Z,12.02
2018-04-17T03:10:47.945Z,12.04
2018-04-17T03:12:49.817Z,12.08
2018-04-17T03:14:51.475Z,11.99
2018-04-17T03:16:53.233Z,11.97
2018-04-17T03:18:54.894Z,12.02
2018-04-17T03:20:56.817Z,11.96
2018-04-17T03:22:58.517Z,11.87
2018-04-17T03:25:00.247Z,11.85
2018-04-17T03:27:01.938Z,11.80
2018-04-17T03:29:03.704Z,11.78
2018-04-17T03:31:05.464Z,11.71
2018-04-17T03:33:07.261Z,11.71
2018-04-17T03:35:09.176Z,11.78
2018-04-17T03:37:10.822Z,11.77
2018-04-17T03:39:12.635Z,11.77
2018-04-17T03:41:14.488Z,11.74
2018-04-17T03:43:16.214Z,11.74
2018-04-17T03:45:17.914Z,11.75
2018-04-17T03:47:19.552Z,11.62
2018-04-17T03:49:21.386Z,11.70
2018-04-17T03:51:23.106Z,11.70
2018-04-17T03:53:24.929Z,11.59
2018-04-17T03:55:26.564Z,11.65
2018-04-17T03:57:28.243Z,11.67
2018-04-17T03:59:29.975Z,11.56
2018-04-17T04:01:31.827Z,11.57
2018-04-17T04:03:33.621Z,11.47
2018-04-17T04:05:35.277Z,11.52
2018-04-17T04:07:36.979Z,11.44
2018-04-17T04:09:38.844Z,11.46
2018-04-17T04:11:40.575Z,11.35
2018-04-17T04:13:42.226Z,11.32
2018-04-17T04:15:44.124Z,11.29
2018-04-17T04:17:45.962Z,11.25
2018-04-17T04:19:47.642Z,11.31
2018-04-17T04:21:49.492Z,11.19
2018-04-17T04:23:51.320Z,11.21
2018-04-17T04:25:54.988Z,11.24
2018-04-17T04:27:56.645Z,11.25
2018-04-17T04:29:58.346Z,11.25
2018-04-17T04:32:00.003Z,11.16
2018-04-17T04:34:01.688Z,11.17
2018-04-17T04:36:03.338Z,11.20
2018-04-17T04:38:46.315Z,11.17
2018-04-17T04:40:47.928Z,11.16
2018-04-17T04:42:49.370Z,11.17
2018-04-17T04:44:51.011Z,11.21
2018-04-17T04:46:52.916Z,11.20
2018-04-17T04:48:54.481Z,11.17
2018-04-17T04:50:56.218Z,11.10
2018-04-17T04:52:58.016Z,11.14
2018-04-17T04:54:59.796Z,11.09
2018-04-17T04:57:01.738Z,11.10
2018-04-17T04:59:03.678Z,11.11
2018-04-17T05:01:05.519Z,11.03
2018-04-17T05:03:07.398Z,11.01
2018-04-17T05:05:09.375Z,10.99
2018-04-17T05:07:11.262Z,11.11
2018-04-17T05:09:13.143Z,11.24
2018-04-17T05:11:14.811Z,11.19
2018-04-17T05:13:16.686Z,11.29
2018-04-17T05:15:18.610Z,11.32
2018-04-17T05:17:20.546Z,11.31
2018-04-17T05:19:22.276Z,11.34
2018-04-17T05:21:24.121Z,11.25
2018-04-17T05:23:25.865Z,11.31
2018-04-17T05:25:27.678Z,11.36
2018-04-17T05:27:29.471Z,11.34
2018-04-17T05:29:31.217Z,11.29
2018-04-17T05:31:32.922Z,11.36
2018-04-17T05:33:34.643Z,11.46
2018-04-17T05:35:36.476Z,11.52
2018-04-17T05:37:38.318Z,11.61
2018-04-17T05:39:40.137Z,11.65
2018-04-17T05:41:41.955Z,11.68
2018-04-17T05:43:43.742Z,11.68
2018-04-17T05:45:45.647Z,11.80
2018-04-17T05:47:47.309Z,11.77
2018-04-17T05:49:49.053Z,11.78
2018-04-17T05:51:50.721Z,11.82
2018-04-17T05:53:52.669Z,11.90
2018-04-17T05:55:54.493Z,12.05
2018-04-17T05:57:56.372Z,12.08
2018-04-17T05:59:58.176Z,12.15
2018-04-17T06:01:59.808Z,12.26
2018-04-17T06:04:01.903Z,12.42
2018-04-17T06:06:03.780Z,12.49
2018-04-17T06:08:05.734Z,12.51
2018-04-17T06:10:07.600Z,12.67
2018-04-17T06:12:09.536Z,12.81
2018-04-17T06:14:11.523Z,12.93
2018-04-17T06:16:13.245Z,13.17
2018-04-17T06:18:15.371Z,13.51
2018-04-17T06:20:17.379Z,13.83
2018-04-17T06:22:19.112Z,13.98
2018-04-17T06:24:21.088Z,14.20
2018-04-17T06:26:23.003Z,14.43
2018-04-17T06:28:24.964Z,14.99
2018-04-17T06:30:26.665Z,15.42
2018-04-17T06:32:28.301Z,16.33
2018-04-17T06:34:30.033Z,17.44
2018-04-17T06:36:31.750Z,18.68
2018-04-17T06:38:33.673Z,19.93
2018-04-17T06:40:35.401Z,20.62
2018-04-17T06:42:37.152Z,20.72
2018-04-17T06:44:39.284Z,20.62
2018-04-17T06:46:41.009Z,20.90
2018-04-17T06:48:42.993Z,21.16
2018-04-17T06:50:44.890Z,20.79
2018-04-17T06:52:46.937Z,20.47
2018-04-17T06:54:48.778Z,20.13
2018-04-17T06:56:50.780Z,20.02
2018-04-17T06:58:52.614Z,20.00
2018-04-17T07:00:54.535Z,19.80
2018-04-17T07:02:56.560Z,19.97
2018-04-17T07:04:58.630Z,20.00
2018-04-17T07:07:00.758Z,20.00
2018-04-17T07:09:02.588Z,19.87
2018-04-17T07:11:04.435Z,19.72
2018-04-17T07:13:06.226Z,19.68
2018-04-17T07:15:08.280Z,19.79
2018-04-17T07:17:10.342Z,19.70
2018-04-17T07:19:12.309Z,19.61
2018-04-17T07:21:14.140Z,19.47
2018-04-17T07:23:16.050Z,19.35
2018-04-17T07:25:18.020Z,19.23
2018-04-17T07:27:19.990Z,19.06
2018-04-17T07:29:21.995Z,19.08
2018-04-17T07:31:23.716Z,18.64
2018-04-17T07:33:25.551Z,18.47
2018-04-17T07:35:27.376Z,18.33
2018-04-17T07:37:29.264Z,17.99
2018-04-17T07:39:31.185Z,17.79
2018-04-17T07:41:33.119Z,17.66
2018-04-17T07:43:34.934Z,17.81
2018-04-17T07:45:36.789Z,17.79
2018-04-17T07:47:38.797Z,17.81
2018-04-17T07:49:40.647Z,18.06
2018-04-17T07:51:42.406Z,17.92
2018-04-17T07:53:44.174Z,17.78
2018-04-17T07:55:46.039Z,17.78
2018-04-17T07:57:48.109Z,17.91
2018-04-17T07:59:49.826Z,17.92
2018-04-17T08:01:51.649Z,17.81
2018-04-17T08:03:53.460Z,17.95
2018-04-17T08:05:55.278Z,17.95
2018-04-17T08:07:57.448Z,17.97
2018-04-17T08:09:59.365Z,18.09
2018-04-17T08:12:01.265Z,18.15
2018-04-17T08:14:03.127Z,18.10
2018-04-17T08:16:04.964Z,18.13
2018-04-17T08:18:06.856Z,18.22
2018-04-17T08:20:08.713Z,18.27
2018-04-17T08:22:10.506Z,18.50
2018-04-17T08:24:13.057Z,18.47
2018-04-17T08:26:14.955Z,18.50
2018-04-17T08:28:16.681Z,18.59
2018-04-17T08:30:18.663Z,18.76
2018-04-17T08:32:20.564Z,18.87
2018-04-17T08:34:22.275Z,18.94
2018-04-17T08:36:24.282Z,18.91
2018-04-17T08:38:26.262Z,19.05
2018-04-17T08:40:28.100Z,19.13
2018-04-17T08:42:29.889Z,19.42
2018-04-17T08:44:31.926Z,19.38
2018-04-17T08:46:33.854Z,19.58
2018-04-17T08:48:35.615Z,19.63
2018-04-17T08:50:37.426Z,19.66
2018-04-17T08:52:39.251Z,19.80
2018-04-17T08:54:40.955Z,19.83
2018-04-17T08:56:42.788Z,20.02
2018-04-17T08:58:44.598Z,19.97
2018-04-17T09:00:46.413Z,20.00
2018-04-17T09:02:48.299Z,20.00
2018-04-17T09:04:50.090Z,20.25
2018-04-17T09:06:51.907Z,20.39
2018-04-17T09:08:53.738Z,20.53
2018-04-17T09:10:55.628Z,20.51
2018-04-17T09:12:57.304Z,20.68
2018-04-17T09:14:59.242Z,20.81
2018-04-17T09:17:01.063Z,20.84
2018-04-17T09:19:02.822Z,20.96
2018-04-17T09:21:04.619Z,21.06
2018-04-17T09:23:06.492Z,21.19
2018-04-17T09:25:08.320Z,21.17
2018-04-17T09:28:33.859Z,21.08
2018-04-17T09:32:06.433Z,21.05
2018-04-17T09:34:51.927Z,20.86
2018-04-17T09:36:53.385Z,20.84
2018-04-17T09:40:11.458Z,20.84
2018-04-17T09:43:21.305Z,20.79
2018-04-17T09:45:23.393Z,20.68
2018-04-17T09:48:21.134Z,20.64
2018-04-17T09:50:41.617Z,20.69
2018-04-17T09:53:13.202Z,20.77
2018-04-17T09:55:55.795Z,21.05
2018-04-17T09:57:57.344Z,20.89
2018-04-17T09:59:59.029Z,20.91
2018-04-17T10:02:00.821Z,20.76
2018-04-17T10:04:02.826Z,20.74
2018-04-17T10:06:04.825Z,20.91
2018-04-17T10:08:06.643Z,20.83
2018-04-17T10:10:08.382Z,20.95
2018-04-17T10:12:10.240Z,21.06
2018-04-17T10:15:03.339Z,21.38
2018-04-17T10:17:54.491Z,21.59
2018-04-17T10:20:37.662Z,21.72
2018-04-17T10:23:26.608Z,21.71
2018-04-17T10:25:28.657Z,21.56
2018-04-17T10:27:30.529Z,21.54
2018-04-17T10:30:16.687Z,21.67
2018-04-17T10:32:18.043Z,21.53
2018-04-17T10:34:21.357Z,21.61
2018-04-17T10:36:23.574Z,21.54
2018-04-17T10:38:25.207Z,21.63
2018-04-17T10:40:26.963Z,22.06
2018-04-17T10:42:28.835Z,22.27
2018-04-17T10:44:30.603Z,22.38
2018-04-17T10:46:32.437Z,22.37
2018-04-17T10:48:34.125Z,22.31
2018-04-17T10:50:35.923Z,22.44
2018-04-17T10:52:37.717Z,22.41
2018-04-17T10:54:39.515Z,22.41
2018-04-17T10:56:41.703Z,22.31
2018-04-17T10:58:44.221Z,22.29
2018-04-17T11:00:46.090Z,22.25
2018-04-17T11:02:47.890Z,22.34
2018-04-17T11:05:30.338Z,22.23
2018-04-17T11:07:31.987Z,22.23
2018-04-17T11:09:33.588Z,22.22
2018-04-17T11:11:35.214Z,22.02
2018-04-17T11:13:39.796Z,22.17
2018-04-17T11:15:41.428Z,22.09
2018-04-17T11:17:43.159Z,21.87
2018-04-17T11:19:47.284Z,22.25
2018-04-17T11:21:48.852Z,22.34
2018-04-17T11:23:50.549Z,22.22
2018-04-17T11:25:52.231Z,21.97
2018-04-17T11:27:54.011Z,21.94
2018-04-17T11:29:55.725Z,22.01
2018-04-17T11:31:57.573Z,22.20
2018-04-17T11:33:59.660Z,22.23
2018-04-17T11:36:01.851Z,22.44
2018-04-17T11:38:03.589Z,22.50
2018-04-17T11:40:05.429Z,22.54
2018-04-17T11:42:07.164Z,22.54
2018-04-17T11:44:08.999Z,22.62
2018-04-17T11:46:11.344Z,22.62
2018-04-17T11:48:13.101Z,22.77
2018-04-17T11:50:15.498Z,22.64
2018-04-17T11:52:17.186Z,22.80
2018-04-17T11:54:19.184Z,22.74
2018-04-17T11:56:20.975Z,22.86
2018-04-17T11:58:22.636Z,22.77
2018-04-17T12:00:24.391Z,22.64
2018-04-17T12:02:26.283Z,22.50
2018-04-17T12:04:28.063Z,22.71
2018-04-17T12:06:29.905Z,22.65
2018-04-17T12:08:31.757Z,22.80
2018-04-17T12:10:33.466Z,22.68
2018-04-17T12:12:35.354Z,22.69
2018-04-17T12:14:37.154Z,22.93
2018-04-17T12:16:38.867Z,23.05
2018-04-17T12:18:40.624Z,23.11
2018-04-17T12:20:42.382Z,23.39
2018-04-17T12:22:44.131Z,23.35
2018-04-17T12:24:45.921Z,23.46
2018-04-17T12:26:47.810Z,23.35
2018-04-17T12:28:49.595Z,23.31
2018-04-17T12:30:51.458Z,23.22
2018-04-17T12:32:53.212Z,23.22
2018-04-17T12:34:55.003Z,23.14
2018-04-17T12:36:56.822Z,22.93
2018-04-17T12:38:58.674Z,23.04
2018-04-17T12:41:00.413Z,23.07
2018-04-17T12:43:02.115Z,22.87
2018-04-17T12:45:03.940Z,23.15
2018-04-17T12:47:05.801Z,23.35
2018-04-17T12:49:07.696Z,23.29
2018-04-17T12:51:09.626Z,23.12
2018-04-17T12:53:11.333Z,23.24
2018-04-17T12:55:13.145Z,23.26
2018-04-17T12:57:14.998Z,23.29
2018-04-17T12:59:16.790Z,23.09
2018-04-17T13:01:18.613Z,23.22
2018-04-17T13:03:20.394Z,23.27
2018-04-17T13:05:22.262Z,23.39
2018-04-17T13:07:24.091Z,23.39
2018-04-17T13:09:25.903Z,23.57
2018-04-17T13:11:27.693Z,23.50
2018-04-17T13:13:29.516Z,23.58
2018-04-17T13:15:31.324Z,23.55
2018-04-17T13:17:33.064Z,23.52
2018-04-17T13:19:34.879Z,23.58
2018-04-17T13:21:36.559Z,23.80
2018-04-17T13:23:38.364Z,23.97
2018-04-17T13:25:40.177Z,24.04
2018-04-17T13:27:41.970Z,24.01
2018-04-17T13:29:44.086Z,23.92
2018-04-17T13:31:46.001Z,23.60
2018-04-17T13:33:47.928Z,23.55
2018-04-17T13:35:49.784Z,23.65
2018-04-17T13:37:51.589Z,23.71
2018-04-17T13:39:53.349Z,23.75
2018-04-17T13:41:55.094Z,23.83
2018-04-17T13:43:56.951Z,23.79
2018-04-17T13:45:58.738Z,23.86
2018-04-17T13:48:00.540Z,23.89
2018-04-17T13:50:02.453Z,23.83
2018-04-17T13:52:04.185Z,23.80
2018-04-17T13:54:05.969Z,23.87
2018-04-17T13:56:07.738Z,23.97
2018-04-17T13:58:09.473Z,23.79
2018-04-17T14:00:11.398Z,23.61
2018-04-17T14:02:13.140Z,23.55
2018-04-17T14:04:14.887Z,23.53
2018-04-17T14:06:16.558Z,23.70
2018-04-17T14:08:18.219Z,23.80
2018-04-17T14:10:19.976Z,23.57
2018-04-17T14:12:21.687Z,23.29
2018-04-17T14:14:23.344Z,23.08
2018-04-17T14:16:24.982Z,23.22
2018-04-17T14:18:26.779Z,23.35
2018-04-17T14:20:28.552Z,23.38
2018-04-17T14:22:30.231Z,23.43
2018-04-17T14:24:31.866Z,23.38
2018-04-17T14:26:33.639Z,23.40
2018-04-17T14:28:35.454Z,23.34
2018-04-17T14:30:37.205Z,23.43
2018-04-17T14:32:39.036Z,23.46
2018-04-17T14:34:40.725Z,23.38
2018-04-17T14:36:42.560Z,23.27
2018-04-17T14:38:44.251Z,23.17
2018-04-17T14:40:46.055Z,23.08
2018-04-17T14:42:47.882Z,23.08
2018-04-17T14:44:49.685Z,23.08
2018-04-17T14:46:51.392Z,23.26
2018-04-17T14:48:53.181Z,23.34
2018-04-17T14:50:55.055Z,23.24
2018-04-17T14:52:56.830Z,23.22
2018-04-17T14:54:58.641Z,23.47
2018-04-17T14:57:00.488Z,23.47
2018-04-17T14:59:02.285Z,23.64
2018-04-17T15:01:04.025Z,23.50
2018-04-17T15:03:05.779Z,23.57
2018-04-17T15:05:07.588Z,23.34
2018-04-17T15:07:09.247Z,23.19
2018-04-17T15:09:11.083Z,23.19
2018-04-17T15:11:12.873Z,23.23
2018-04-17T15:13:14.871Z,23.12
2018-04-17T15:15:16.786Z,22.97
2018-04-17T15:17:18.570Z,22.97
2018-04-17T15:19:20.318Z,22.89
2018-04-17T15:21:22.064Z,22.94
2018-04-17T15:23:23.679Z,23.02
2018-04-17T15:25:25.387Z,23.14
2018-04-17T15:27:27.256Z,23.08
2018-04-17T15:29:29.026Z,22.96
2018-04-17T15:31:30.799Z,23.04
2018-04-17T15:33:32.624Z,23.12
2018-04-17T15:35:34.356Z,23.31
2018-04-17T15:37:36.110Z,23.26
2018-04-17T15:39:37.899Z,23.04
2018-04-17T15:41:39.709Z,22.99
2018-04-17T15:43:41.433Z,23.12
2018-04-17T15:45:43.141Z,22.99
2018-04-17T15:47:44.720Z,23.02
2018-04-17T15:49:46.331Z,23.09
2018-04-17T15:51:47.869Z,22.94
2018-04-17T15:53:49.652Z,22.97
2018-04-17T15:55:51.474Z,22.99
2018-04-17T15:57:53.188Z,22.78
2018-04-17T15:59:54.981Z,22.72
2018-04-17T16:01:56.834Z,22.71
2018-04-17T16:03:58.636Z,22.78
2018-04-17T16:06:00.684Z,22.78
2018-04-17T16:08:02.488Z,22.97
2018-04-17T16:10:04.219Z,22.87
2018-04-17T16:12:06.162Z,23.05
2018-04-17T16:14:08.055Z,23.24
2018-04-17T16:16:09.910Z,23.23
2018-04-17T16:18:11.816Z,23.17
2018-04-17T16:20:13.649Z,23.20
2018-04-17T16:22:15.465Z,23.02
2018-04-17T16:24:17.285Z,22.83
2018-04-17T16:26:19.081Z,22.77
2018-04-17T16:28:20.977Z,22.90
2018-04-17T16:30:22.835Z,22.97
2018-04-17T16:32:24.651Z,23.01
2018-04-17T16:34:26.514Z,22.99
2018-04-17T16:36:28.364Z,22.80
2018-04-17T16:38:30.026Z,22.75
2018-04-17T16:40:31.667Z,22.65
2018-04-17T16:42:33.449Z,22.75
2018-04-17T16:44:35.198Z,22.83
2018-04-17T16:46:36.956Z,22.93
2018-04-17T16:48:38.671Z,22.87
2018-04-17T16:50:40.509Z,22.84
2018-04-17T16:52:42.332Z,22.92
2018-04-17T16:54:43.947Z,22.94
2018-04-17T16:56:45.566Z,22.80
2018-04-17T16:58:47.309Z,22.82
2018-04-17T17:00:49.083Z,22.74
2018-04-17T17:02:50.926Z,22.67
2018-04-17T17:04:52.768Z,22.72
2018-04-17T17:06:54.531Z,22.77
2018-04-17T17:08:56.256Z,22.75
2018-04-17T17:10:57.945Z,22.82
2018-04-17T17:12:59.589Z,22.75
2018-04-17T17:15:01.420Z,22.72
2018-04-17T17:17:03.069Z,22.75
2018-04-17T17:19:04.829Z,22.67
2018-04-17T17:21:06.588Z,22.72
2018-04-17T17:23:08.372Z,22.72
2018-04-17T17:25:10.136Z,22.78
2018-04-17T17:27:11.952Z,22.75
2018-04-17T17:29:13.672Z,22.72
2018-04-17T17:31:15.465Z,22.67
2018-04-17T17:33:17.260Z,22.54
2018-04-17T17:35:19.022Z,22.49
2018-04-17T17:37:20.886Z,22.50
2018-04-17T17:39:22.681Z,22.49
2018-04-17T17:41:24.345Z,22.52
2018-04-17T17:43:26.140Z,22.47
2018-04-17T17:45:27.911Z,22.41
2018-04-17T17:47:29.720Z,22.41
2018-04-17T17:49:31.511Z,22.28
2018-04-17T17:51:33.360Z,22.37
2018-04-17T17:53:35.070Z,22.37
2018-04-17T17:55:36.827Z,22.25
2018-04-17T17:57:38.629Z,22.25
2018-04-17T17:59:40.463Z,22.20
2018-04-17T18:01:42.118Z,22.20
2018-04-17T18:03:43.781Z,22.09
2018-04-17T18:05:45.617Z,21.98
2018-04-17T18:07:47.287Z,22.01
2018-04-17T18:09:48.842Z,21.95
2018-04-17T18:11:50.600Z,21.90
2018-04-17T18:13:52.247Z,21.82
2018-04-17T18:15:54.080Z,21.74
2018-04-17T18:17:55.855Z,21.69
2018-04-17T18:19:57.537Z,21.75
2018-04-17T18:21:59.295Z,21.66
2018-04-17T18:24:01.056Z,21.57
2018-04-17T18:26:03.100Z,21.53
2018-04-17T18:28:04.967Z,21.45
2018-04-17T18:30:07.064Z,21.44
2018-04-17T18:32:08.901Z,21.39
2018-04-17T18:34:10.734Z,21.30
2018-04-17T18:36:12.553Z,21.20
2018-04-17T18:38:14.408Z,21.21
2018-04-17T18:40:16.280Z,21.19
2018-04-17T18:42:18.239Z,21.13
2018-04-17T18:44:20.189Z,21.11
2018-04-17T18:46:22.017Z,21.01
2018-04-17T18:48:23.816Z,20.95
2018-04-17T18:50:25.622Z,20.87
2018-04-17T18:52:27.534Z,20.89
2018-04-17T18:54:29.321Z,20.74
2018-04-17T18:56:31.195Z,20.79
2018-04-17T18:58:33.012Z,20.66
2018-04-17T19:00:34.894Z,20.68
2018-04-17T19:02:36.766Z,20.59
2018-04-17T19:04:38.611Z,20.66
2018-04-17T19:06:40.332Z,20.58
2018-04-17T19:08:42.217Z,20.51
2018-04-17T19:10:44.143Z,20.50
2018-04-17T19:12:45.929Z,20.49
2018-04-17T19:14:47.902Z,20.50
2018-04-17T19:16:49.740Z,20.46
2018-04-17T19:18:51.610Z,20.47
2018-04-17T19:20:53.428Z,20.42
2018-04-17T19:22:55.224Z,20.35
2018-04-17T19:24:56.914Z,20.23
2018-04-17T19:26:58.891Z,20.21
2018-04-17T19:29:00.844Z,20.18
2018-04-17T19:31:02.673Z,20.10
2018-04-17T19:33:04.450Z,20.05
2018-04-17T19:35:06.319Z,20.05
2018-04-17T19:37:08.498Z,19.97
2018-04-17T19:39:10.547Z,20.02
2018-04-17T19:41:12.487Z,20.00
2018-04-17T19:43:14.348Z,19.91
2018-04-17T19:45:16.181Z,19.91
2018-04-17T19:47:18.121Z,19.93
2018-04-17T19:49:20.392Z,19.84
2018-04-17T19:51:22.225Z,19.87
2018-04-17T19:53:24.328Z,19.90
2018-04-17T19:55:26.123Z,19.83
2018-04-17T19:57:27.943Z,19.72
2018-04-17T19:59:29.601Z,19.66
2018-04-17T20:01:31.549Z,19.68
2018-04-17T20:03:33.220Z,19.54
2018-04-17T20:05:35.187Z,19.60
2018-04-17T20:07:36.859Z,19.61
2018-04-17T20:09:38.926Z,19.50
2018-04-17T20:11:40.665Z,19.50
2018-04-17T20:13:42.448Z,19.43
2018-04-17T20:15:44.171Z,19.47
2018-04-17T20:17:45.994Z,19.48
2018-04-17T20:19:47.860Z,19.43
2018-04-17T20:21:49.760Z,19.31
2018-04-17T20:23:51.733Z,19.24
2018-04-17T20:25:53.396Z,19.14
2018-04-17T20:27:55.225Z,19.10
2018-04-17T20:29:57.024Z,19.01
2018-04-17T20:31:59.003Z,18.99
2018-04-17T20:34:00.797Z,18.98
2018-04-17T20:36:02.490Z,18.98
2018-04-17T20:38:04.403Z,18.86
2018-04-17T20:40:06.158Z,18.86
2018-04-17T20:42:07.933Z,18.87
2018-04-17T20:44:09.626Z,18.79
2018-04-17T20:46:11.506Z,18.80
2018-04-17T20:48:13.288Z,18.70
2018-04-17T20:50:15.107Z,18.65
2018-04-17T20:52:16.773Z,18.65
2018-04-17T20:54:18.678Z,18.64
2018-04-17T20:56:20.375Z,18.70
2018-04-17T20:58:22.180Z,18.61
2018-04-17T21:00:24.048Z,18.62
2018-04-17T21:02:25.734Z,18.52
2018-04-17T21:04:27.776Z,18.50
2018-04-17T21:06:29.678Z,18.54
2018-04-17T21:08:31.509Z,18.50
2018-04-17T21:10:33.271Z,18.43
2018-04-17T21:12:34.987Z,18.37
2018-04-17T21:14:36.717Z,18.46
2018-04-17T21:16:38.589Z,18.29
2018-04-17T21:18:40.364Z,18.31
2018-04-17T21:20:42.073Z,18.31
2018-04-17T21:22:43.918Z,18.22
2018-04-17T21:24:45.643Z,18.17
2018-04-17T21:26:47.612Z,18.10
2018-04-17T21:28:49.355Z,18.10
2018-04-17T21:30:50.996Z,18.09
2018-04-17T21:32:52.758Z,18.03
2018-04-17T21:34:54.444Z,17.94
2018-04-17T21:36:56.320Z,17.91
2018-04-17T21:38:58.184Z,17.99
2018-04-17T21:40:59.980Z,17.97
2018-04-17T21:43:01.900Z,17.97
2018-04-17T21:45:03.716Z,18.03
2018-04-17T21:47:05.607Z,17.94
2018-04-17T21:49:07.478Z,17.94
2018-04-17T21:51:09.369Z,17.81
2018-04-17T21:53:11.091Z,17.76
2018-04-17T21:55:12.849Z,17.73
2018-04-17T21:57:14.674Z,17.76
2018-04-17T21:59:16.439Z,17.70
2018-04-17T22:01:18.281Z,17.73
2018-04-17T22:03:20.042Z,17.69
2018-04-17T22:05:21.845Z,17.69
2018-04-17T22:07:23.735Z,17.57
2018-04-17T22:09:25.433Z,17.64
2018-04-17T22:11:27.197Z,17.59
2018-04-17T22:13:28.965Z,17.55
2018-04-17T22:15:30.733Z,17.41
2018-04-17T22:17:32.382Z,17.36
2018-04-17T22:19:34.202Z,17.30
2018-04-17T22:21:36.001Z,17.20
2018-04-17T22:23:37.853Z,17.18
2018-04-17T22:25:39.595Z,17.15
2018-04-17T22:27:41.407Z,17.13
2018-04-17T22:29:43.203Z,17.13
2018-04-17T22:31:44.902Z,17.04
2018-04-17T22:33:46.706Z,16.95
2018-04-17T22:35:48.409Z,17.03
2018-04-17T22:37:50.261Z,16.95
2018-04-17T22:39:52.088Z,16.95
2018-04-17T22:41:53.737Z,16.96
2018-04-17T22:43:55.581Z,16.86
2018-04-17T22:45:57.403Z,16.95
2018-04-17T22:47:59.203Z,16.96
2018-04-17T22:50:01.025Z,16.95
2018-04-17T22:52:02.722Z,16.92
2018-04-17T22:54:04.630Z,16.93
2018-04-17T22:56:06.342Z,16.95
2018-04-17T22:58:08.123Z,16.93
2018-04-17T23:00:09.849Z,16.92
2018-04-17T23:02:11.508Z,16.92
2018-04-17T23:04:13.336Z,16.89
2018-04-17T23:06:15.046Z,16.81
2018-04-17T23:08:16.775Z,16.86
2018-04-17T23:10:18.504Z,16.81
2018-04-17T23:12:20.469Z,16.80
2018-04-17T23:14:22.326Z,16.81
2018-04-17T23:16:24.176Z,16.68
2018-04-17T23:18:26.005Z,16.68
2018-04-17T23:20:27.795Z,16.65
2018-04-17T23:22:29.567Z,16.67
2018-04-17T23:24:31.394Z,16.67
2018-04-17T23:26:33.133Z,16.70
2018-04-17T23:28:34.956Z,16.60
2018-04-17T23:30:36.724Z,16.62
2018-04-17T23:32:38.359Z,16.58
2018-04-17T23:34:40.235Z,16.49
2018-04-17T23:36:41.963Z,16.44
2018-04-17T23:38:43.664Z,16.44
2018-04-17T23:40:45.440Z,16.41
2018-04-17T23:42:47.365Z,16.42
2018-04-17T23:44:48.973Z,16.34
2018-04-17T23:46:50.661Z,16.26
2018-04-17T23:48:52.441Z,16.31
2018-04-17T23:50:54.208Z,16.22
2018-04-17T23:52:56.181Z,16.16
2018-04-17T23:54:57.877Z,16.20
2018-04-17T23:56:59.787Z,16.18
2018-04-17T23:59:01.540Z,16.11
